createdAt,value
2018-09-27T00:01:30.569Z,8.63
2018-09-27T00:03:59.104Z,8.66
2018-09-27T00:06:27.649Z,8.68
2018-09-27T00:08:56.245Z,8.67
2018-09-27T00:11:24.757Z,8.63
2018-09-27T00:13:53.259Z,8.59
2018-09-27T00:16:21.751Z,8.56
2018-09-27T00:18:50.284Z,8.48
2018-09-27T00:21:18.822Z,8.45
2018-09-27T00:23:47.288Z,8.46
2018-09-27T00:26:15.792Z,8.39
2018-09-27T00:28:44.251Z,8.37
2018-09-27T00:31:12.791Z,8.40
2018-09-27T00:33:41.271Z,8.41
2018-09-27T00:36:09.741Z,8.41
2018-09-27T00:38:38.277Z,8.42
2018-09-27T00:41:06.808Z,8.38
2018-09-27T00:43:35.272Z,8.38
2018-09-27T00:46:03.760Z,8.37
2018-09-27T00:48:32.255Z,8.38
2018-09-27T00:51:00.657Z,8.34
2018-09-27T00:53:29.162Z,8.33
2018-09-27T00:55:57.509Z,8.31
2018-09-27T00:58:25.908Z,8.28
2018-09-27T01:00:54.377Z,8.25
2018-09-27T01:03:22.741Z,8.23
2018-09-27T01:05:51.135Z,8.26
2018-09-27T01:08:19.488Z,8.28
2018-09-27T01:10:47.897Z,8.27
2018-09-27T01:13:16.297Z,8.28
2018-09-27T01:15:44.672Z,8.27
2018-09-27T01:18:13.046Z,8.23
2018-09-27T01:20:41.409Z,8.21
2018-09-27T01:23:09.778Z,8.20
2018-09-27T01:25:38.265Z,8.14
2018-09-27T01:28:06.696Z,8.09
2018-09-27T01:30:35.077Z,8.05
2018-09-27T01:33:03.478Z,8.08
2018-09-27T01:35:31.855Z,8.09
2018-09-27T01:38:00.248Z,8.12
2018-09-27T01:40:28.622Z,8.11
2018-09-27T01:42:56.981Z,8.17
2018-09-27T01:45:25.358Z,8.19
2018-09-27T01:47:53.748Z,8.18
2018-09-27T01:50:22.172Z,8.22
2018-09-27T01:52:50.597Z,8.20
2018-09-27T01:55:19.068Z,8.18
2018-09-27T01:57:47.425Z,8.12
2018-09-27T02:00:15.807Z,8.06
2018-09-27T02:02:44.154Z,8.06
2018-09-27T02:05:12.566Z,8.03
2018-09-27T02:07:40.928Z,8.07
2018-09-27T02:10:09.271Z,8.09
2018-09-27T02:12:37.695Z,8.07
2018-09-27T02:15:06.130Z,8.09
2018-09-27T02:17:34.537Z,8.10
2018-09-27T02:20:02.944Z,8.10
2018-09-27T02:22:31.476Z,8.09
2018-09-27T02:24:59.859Z,8.06
2018-09-27T02:27:28.934Z,8.03
2018-09-27T02:29:57.464Z,8.03
2018-09-27T02:32:25.825Z,8.00
2018-09-27T02:34:54.291Z,8.00
2018-09-27T02:37:22.665Z,7.96
2018-09-27T02:39:51.043Z,7.99
2018-09-27T02:42:19.450Z,7.96
2018-09-27T02:44:47.816Z,7.95
2018-09-27T02:47:16.184Z,7.89
2018-09-27T02:49:44.607Z,7.69
2018-09-27T02:52:13.001Z,7.85
2018-09-27T02:54:41.372Z,7.85
2018-09-27T02:57:09.758Z,7.89
2018-09-27T02:59:38.155Z,7.93
2018-09-27T03:02:06.565Z,7.95
2018-09-27T03:04:34.964Z,7.91
2018-09-27T03:07:03.349Z,7.91
2018-09-27T03:09:31.698Z,7.88
2018-09-27T03:12:00.101Z,7.84
2018-09-27T03:14:28.473Z,7.80
2018-09-27T03:16:56.866Z,7.73
2018-09-27T03:19:25.309Z,7.69
2018-09-27T03:21:53.676Z,7.70
2018-09-27T03:24:22.044Z,7.72
2018-09-27T03:26:50.489Z,7.72
2018-09-27T03:29:18.846Z,7.71
2018-09-27T03:31:47.221Z,7.67
2018-09-27T03:34:15.640Z,7.68
2018-09-27T03:36:44.041Z,7.69
2018-09-27T03:39:12.388Z,7.41
2018-09-27T03:41:40.774Z,7.70
2018-09-27T03:44:09.258Z,7.70
2018-09-27T03:46:37.668Z,7.67
2018-09-27T03:49:06.104Z,7.46
2018-09-27T03:51:35.166Z,7.58
2018-09-27T03:54:03.579Z,7.55
2018-09-27T03:56:31.938Z,7.54
2018-09-27T03:59:02.246Z,7.54
2018-09-27T04:01:30.817Z,7.52
2018-09-27T04:03:59.181Z,7.53
2018-09-27T04:06:27.547Z,7.52
2018-09-27T04:08:55.950Z,7.53
2018-09-27T04:11:24.307Z,7.49
2018-09-27T04:13:53.378Z,7.51
2018-09-27T04:16:21.792Z,7.52
2018-09-27T04:18:50.188Z,7.54
2018-09-27T04:21:18.638Z,7.54
2018-09-27T04:23:47.061Z,7.55
2018-09-27T04:26:15.525Z,7.53
2018-09-27T04:28:43.954Z,7.54
2018-09-27T04:31:12.377Z,7.54
2018-09-27T04:33:41.342Z,7.53
2018-09-27T04:36:09.713Z,7.53
2018-09-27T04:38:38.110Z,7.53
2018-09-27T04:41:06.502Z,7.58
2018-09-27T04:43:35.057Z,7.29
2018-09-27T04:46:03.558Z,7.54
2018-09-27T04:48:32.049Z,7.53
2018-09-27T04:51:00.425Z,7.50
2018-09-27T04:53:29.840Z,7.47
2018-09-27T04:55:58.236Z,7.46
2018-09-27T04:58:26.613Z,7.48
2018-09-27T05:00:55.057Z,7.47
2018-09-27T05:03:23.405Z,7.45
2018-09-27T05:05:51.800Z,7.41
2018-09-27T05:08:20.211Z,7.36
2018-09-27T05:10:49.164Z,7.37
2018-09-27T05:13:17.532Z,7.39
2018-09-27T05:15:45.945Z,7.41
2018-09-27T05:18:14.326Z,7.36
2018-09-27T05:20:42.807Z,7.35
2018-09-27T05:23:11.215Z,7.34
2018-09-27T05:25:39.595Z,7.36
2018-09-27T05:28:08.043Z,7.36
2018-09-27T05:30:36.446Z,7.33
2018-09-27T05:33:04.859Z,7.30
2018-09-27T05:35:33.317Z,7.31
2018-09-27T05:38:01.759Z,7.27
2018-09-27T05:40:31.247Z,7.28
2018-09-27T05:42:59.639Z,7.31
2018-09-27T05:45:28.046Z,7.36
2018-09-27T05:47:56.421Z,7.34
2018-09-27T05:50:24.792Z,7.32
2018-09-27T05:52:53.200Z,7.34
2018-09-27T05:55:21.614Z,7.34
2018-09-27T05:57:50.154Z,7.35
2018-09-27T06:00:18.596Z,7.31
2018-09-27T06:02:46.968Z,7.30
2018-09-27T06:05:15.418Z,7.32
2018-09-27T06:07:43.776Z,7.36
2018-09-27T06:10:12.209Z,7.37
2018-09-27T06:12:40.576Z,7.36
2018-09-27T06:15:09.011Z,7.35
2018-09-27T06:17:37.435Z,7.34
2018-09-27T06:20:05.845Z,7.37
2018-09-27T06:22:34.229Z,7.40
2018-09-27T06:25:02.602Z,7.44
2018-09-27T06:27:31.016Z,7.46
2018-09-27T06:29:59.436Z,7.50
2018-09-27T06:32:27.862Z,7.52
2018-09-27T06:34:56.301Z,7.55
2018-09-27T06:37:24.670Z,7.58
2018-09-27T06:39:53.065Z,7.64
2018-09-27T06:42:21.507Z,7.69
2018-09-27T06:44:49.820Z,7.73
2018-09-27T06:47:18.267Z,7.78
2018-09-27T06:49:46.680Z,7.81
2018-09-27T06:52:15.078Z,7.84
2018-09-27T06:54:43.549Z,7.89
2018-09-27T06:57:11.889Z,7.92
2018-09-27T06:59:40.302Z,7.95
2018-09-27T07:02:08.708Z,7.99
2018-09-27T07:04:37.115Z,8.02
2018-09-27T07:07:05.521Z,8.06
2018-09-27T07:09:33.908Z,8.12
2018-09-27T07:12:02.321Z,8.19
2018-09-27T07:14:30.704Z,8.24
2018-09-27T07:16:59.134Z,8.28
2018-09-27T07:19:27.565Z,8.31
2018-09-27T07:21:55.984Z,8.37
2018-09-27T07:24:24.384Z,8.41
2018-09-27T07:26:52.807Z,8.49
2018-09-27T07:29:21.196Z,8.54
2018-09-27T07:31:49.592Z,8.54
2018-09-27T07:34:17.946Z,8.56
2018-09-27T07:36:46.384Z,8.57
2018-09-27T07:39:14.805Z,8.60
2018-09-27T07:41:43.189Z,8.62
2018-09-27T07:44:12.911Z,8.66
2018-09-27T07:46:41.314Z,8.72
2018-09-27T07:49:09.831Z,8.79
2018-09-27T07:51:39.004Z,8.85
2018-09-27T07:54:07.491Z,8.89
2018-09-27T07:56:35.924Z,8.93
2018-09-27T07:59:04.401Z,8.99
2018-09-27T08:01:32.802Z,9.04
2018-09-27T08:04:01.325Z,9.10
2018-09-27T08:06:29.680Z,9.15
2018-09-27T08:08:58.163Z,9.17
2018-09-27T08:11:26.618Z,9.20
2018-09-27T08:13:54.990Z,9.25
2018-09-27T08:16:23.416Z,9.28
2018-09-27T08:18:51.840Z,9.45
2018-09-27T08:21:20.236Z,9.55
2018-09-27T08:23:48.632Z,9.65
2018-09-27T08:26:17.075Z,9.73
2018-09-27T08:28:45.479Z,9.76
2018-09-27T08:31:13.921Z,9.75
2018-09-27T08:33:42.281Z,9.81
2018-09-27T08:36:10.707Z,9.78
2018-09-27T08:38:39.122Z,9.84
2018-09-27T08:41:07.625Z,9.93
2018-09-27T08:43:36.018Z,9.98
2018-09-27T08:46:04.486Z,10.01
2018-09-27T08:48:32.974Z,10.02
2018-09-27T08:51:01.372Z,10.08
2018-09-27T08:53:29.780Z,10.19
2018-09-27T08:55:58.290Z,10.25
2018-09-27T08:58:26.719Z,10.25
2018-09-27T09:00:55.085Z,10.29
2018-09-27T09:03:23.544Z,10.29
2018-09-27T09:05:51.964Z,10.22
2018-09-27T09:08:20.356Z,10.38
2018-09-27T09:10:48.760Z,10.47
2018-09-27T09:13:17.199Z,10.48
2018-09-27T09:15:45.610Z,10.45
2018-09-27T09:18:14.036Z,10.45
2018-09-27T09:20:42.524Z,10.47
2018-09-27T09:23:10.945Z,10.48
2018-09-27T09:25:39.401Z,10.52
2018-09-27T09:28:07.772Z,10.62
2018-09-27T09:30:36.191Z,10.65
2018-09-27T09:33:04.637Z,10.72
2018-09-27T09:35:33.124Z,10.78
2018-09-27T09:38:01.517Z,10.81
2018-09-27T09:40:31.051Z,10.81
2018-09-27T09:42:59.955Z,10.82
2018-09-27T09:45:28.382Z,10.84
2018-09-27T09:47:56.776Z,10.91
2018-09-27T09:50:25.194Z,11.02
2018-09-27T09:52:53.620Z,11.09
2018-09-27T09:55:22.089Z,11.11
2018-09-27T09:57:50.505Z,11.18
2018-09-27T10:00:18.964Z,11.04
2018-09-27T10:02:47.377Z,11.39
2018-09-27T10:05:15.771Z,11.35
2018-09-27T10:07:44.193Z,11.37
2018-09-27T10:10:12.646Z,11.42
2018-09-27T10:12:41.077Z,11.48
2018-09-27T10:15:09.532Z,11.53
2018-09-27T10:17:38.052Z,11.68
2018-09-27T10:20:06.660Z,11.95
2018-09-27T10:22:35.091Z,12.01
2018-09-27T10:25:03.581Z,11.94
2018-09-27T10:27:32.048Z,12.02
2018-09-27T10:30:00.521Z,12.13
2018-09-27T10:32:28.901Z,12.30
2018-09-27T10:34:57.422Z,12.39
2018-09-27T10:37:25.792Z,12.32
2018-09-27T10:39:54.292Z,12.43
2018-09-27T10:42:22.773Z,12.54
2018-09-27T10:44:51.231Z,12.83
2018-09-27T10:47:19.669Z,12.80
2018-09-27T10:49:48.097Z,12.87
2018-09-27T10:52:16.517Z,13.09
2018-09-27T10:54:44.991Z,13.04
2018-09-27T10:57:13.560Z,13.03
2018-09-27T10:59:42.014Z,13.05
2018-09-27T11:02:10.455Z,13.16
2018-09-27T11:04:38.897Z,13.11
2018-09-27T11:07:07.390Z,13.07
2018-09-27T11:09:35.771Z,13.07
2018-09-27T11:12:04.249Z,13.15
2018-09-27T11:14:32.708Z,13.24
2018-09-27T11:17:01.095Z,13.40
2018-09-27T11:19:29.508Z,13.61
2018-09-27T11:21:57.992Z,13.52
2018-09-27T11:24:26.360Z,13.43
2018-09-27T11:26:54.796Z,13.70
2018-09-27T11:29:28.518Z,13.81
2018-09-27T11:32:02.275Z,13.74
2018-09-27T11:34:30.712Z,14.00
2018-09-27T11:36:59.114Z,13.98
2018-09-27T11:39:27.519Z,14.07
2018-09-27T11:41:55.929Z,13.89
2018-09-27T11:44:24.416Z,13.84
2018-09-27T11:46:52.985Z,13.74
2018-09-27T11:49:21.454Z,13.69
2018-09-27T11:51:49.897Z,13.74
2018-09-27T11:54:18.345Z,13.67
2018-09-27T11:56:46.768Z,13.66
2018-09-27T11:59:15.186Z,13.88
2018-09-27T12:01:43.702Z,13.97
2018-09-27T12:04:12.065Z,14.11
2018-09-27T12:06:40.533Z,14.33
2018-09-27T12:09:10.931Z,14.35
2018-09-27T12:11:39.342Z,14.42
2018-09-27T12:14:08.208Z,14.40
2018-09-27T12:16:36.683Z,14.35
2018-09-27T12:19:05.129Z,14.19
2018-09-27T12:21:33.625Z,14.22
2018-09-27T12:24:02.069Z,14.31
2018-09-27T12:26:30.544Z,14.56
2018-09-27T12:28:59.069Z,14.93
2018-09-27T12:31:27.497Z,15.07
2018-09-27T12:33:56.533Z,15.28
2018-09-27T12:36:25.025Z,15.89
2018-09-27T12:38:53.503Z,16.51
2018-09-27T12:41:21.858Z,16.99
2018-09-27T12:43:50.277Z,17.40
2018-09-27T12:46:18.705Z,17.76
2018-09-27T12:48:47.265Z,18.04
2018-09-27T12:51:15.937Z,18.45
2018-09-27T12:53:45.042Z,18.74
2018-09-27T12:56:13.515Z,19.13
2018-09-27T12:58:42.060Z,19.41
2018-09-27T13:01:10.518Z,19.70
2018-09-27T13:03:38.883Z,20.00
2018-09-27T13:06:07.347Z,20.11
2018-09-27T13:08:35.861Z,20.22
2018-09-27T13:11:04.196Z,20.36
2018-09-27T13:13:32.761Z,20.27
2018-09-27T13:16:01.114Z,20.31
2018-09-27T13:18:29.450Z,20.27
2018-09-27T13:20:57.869Z,20.04
2018-09-27T13:23:26.396Z,19.73
2018-09-27T13:25:54.775Z,19.22
2018-09-27T13:28:23.204Z,18.77
2018-09-27T13:30:51.648Z,18.30
2018-09-27T13:33:20.084Z,18.00
2018-09-27T13:35:48.513Z,17.74
2018-09-27T13:38:16.889Z,17.57
2018-09-27T13:40:45.252Z,17.33
2018-09-27T13:43:13.687Z,17.13
2018-09-27T13:45:42.132Z,16.92
2018-09-27T13:48:10.616Z,16.78
2018-09-27T13:50:39.088Z,16.98
2018-09-27T13:53:07.519Z,17.25
2018-09-27T13:55:36.001Z,17.17
2018-09-27T13:58:04.475Z,17.18
2018-09-27T14:00:32.899Z,17.10
2018-09-27T14:03:01.401Z,17.13
2018-09-27T14:05:29.839Z,17.38
2018-09-27T14:07:58.280Z,17.53
2018-09-27T14:10:26.768Z,17.86
2018-09-27T14:12:55.185Z,17.84
2018-09-27T14:15:23.598Z,17.68
2018-09-27T14:17:52.010Z,17.54
2018-09-27T14:20:20.441Z,17.28
2018-09-27T14:22:49.064Z,17.29
2018-09-27T14:25:17.445Z,17.13
2018-09-27T14:27:45.891Z,17.07
2018-09-27T14:30:14.311Z,17.36
2018-09-27T14:32:42.767Z,17.36
2018-09-27T14:35:11.296Z,17.63
2018-09-27T14:37:39.741Z,17.87
2018-09-27T14:40:09.113Z,17.52
2018-09-27T14:42:37.593Z,17.31
2018-09-27T14:45:06.123Z,17.05
2018-09-27T14:47:34.677Z,16.83
2018-09-27T14:50:03.161Z,16.64
2018-09-27T14:52:31.550Z,16.45
2018-09-27T14:55:00.009Z,16.33
2018-09-27T14:57:28.403Z,16.57
2018-09-27T14:59:56.952Z,17.16
2018-09-27T15:02:25.383Z,17.73
2018-09-27T15:04:53.846Z,17.60
2018-09-27T15:07:22.254Z,17.90
2018-09-27T15:09:50.816Z,17.82
2018-09-27T15:12:19.188Z,17.76
2018-09-27T15:14:47.603Z,17.53
2018-09-27T15:17:16.045Z,17.51
2018-09-27T15:19:44.517Z,17.65
2018-09-27T15:22:12.930Z,17.51
2018-09-27T15:24:41.327Z,17.54
2018-09-27T15:27:09.988Z,17.59
2018-09-27T15:29:38.536Z,17.57
2018-09-27T15:32:06.973Z,17.50
2018-09-27T15:34:35.442Z,17.62
2018-09-27T15:37:03.911Z,17.59
2018-09-27T15:39:32.397Z,17.40
2018-09-27T15:42:00.843Z,17.17
2018-09-27T15:44:29.277Z,17.30
2018-09-27T15:46:57.697Z,17.13
2018-09-27T15:49:26.200Z,16.89
2018-09-27T15:51:54.661Z,16.99
2018-09-27T15:54:23.032Z,17.18
2018-09-27T15:56:51.493Z,17.24
2018-09-27T15:59:19.912Z,17.42
2018-09-27T16:01:48.367Z,17.48
2018-09-27T16:04:16.801Z,17.91
2018-09-27T16:06:45.227Z,17.71
2018-09-27T16:09:13.659Z,17.56
2018-09-27T16:11:42.637Z,17.57
2018-09-27T16:14:11.168Z,17.35
2018-09-27T16:16:39.958Z,17.23
2018-09-27T16:19:08.347Z,17.39
2018-09-27T16:21:37.608Z,17.41
2018-09-27T16:24:06.056Z,17.56
2018-09-27T16:26:34.528Z,17.52
2018-09-27T16:29:02.949Z,17.44
2018-09-27T16:31:31.355Z,17.20
2018-09-27T16:33:59.805Z,16.98
2018-09-27T16:36:28.283Z,16.84
2018-09-27T16:38:56.645Z,16.63
2018-09-27T16:41:25.151Z,16.39
2018-09-27T16:43:53.578Z,16.19
2018-09-27T16:46:21.997Z,16.01
2018-09-27T16:48:50.407Z,15.84
2018-09-27T16:51:18.833Z,15.72
2018-09-27T16:53:48.257Z,15.61
2018-09-27T16:56:17.369Z,15.52
2018-09-27T16:58:45.779Z,15.46
2018-09-27T17:01:14.200Z,15.43
2018-09-27T17:03:42.616Z,15.34
2018-09-27T17:06:11.048Z,15.26
2018-09-27T17:08:39.445Z,15.17
2018-09-27T17:11:07.933Z,15.08
2018-09-27T17:13:36.553Z,15.01
2018-09-27T17:16:04.972Z,14.93
2018-09-27T17:18:33.559Z,14.88
2018-09-27T17:21:02.001Z,14.83
2018-09-27T17:23:30.440Z,14.77
2018-09-27T17:25:58.895Z,14.71
2018-09-27T17:28:27.469Z,14.63
2018-09-27T17:30:55.857Z,14.58
2018-09-27T17:33:24.253Z,14.50
2018-09-27T17:35:52.659Z,14.44
2018-09-27T17:38:21.043Z,14.39
2018-09-27T17:40:49.611Z,14.34
2018-09-27T17:43:18.078Z,14.30
2018-09-27T17:45:46.484Z,14.26
2018-09-27T17:48:14.931Z,14.23
2018-09-27T17:50:43.403Z,14.20
2018-09-27T17:53:12.006Z,14.12
2018-09-27T17:55:40.437Z,14.07
2018-09-27T17:58:08.865Z,14.04
2018-09-27T18:00:37.352Z,13.98
2018-09-27T18:03:05.901Z,13.96
2018-09-27T18:05:34.402Z,13.90
2018-09-27T18:08:02.882Z,13.85
2018-09-27T18:10:31.308Z,13.82
2018-09-27T18:12:59.802Z,13.78
2018-09-27T18:15:28.268Z,13.75
2018-09-27T18:17:56.701Z,13.68
2018-09-27T18:20:25.092Z,13.63
2018-09-27T18:22:53.765Z,13.61
2018-09-27T18:25:22.164Z,13.58
2018-09-27T18:27:50.659Z,13.56
2018-09-27T18:30:19.084Z,13.51
2018-09-27T18:32:47.521Z,13.41
2018-09-27T18:35:15.959Z,13.38
2018-09-27T18:37:44.427Z,13.37
2018-09-27T18:40:13.143Z,13.29
2018-09-27T18:42:41.970Z,13.25
2018-09-27T18:45:10.435Z,13.21
2018-09-27T18:47:39.564Z,13.16
2018-09-27T18:50:08.895Z,13.14
2018-09-27T18:52:37.460Z,13.13
2018-09-27T18:55:05.901Z,13.09
2018-09-27T18:57:34.342Z,13.06
2018-09-27T19:00:02.761Z,13.05
2018-09-27T19:02:31.167Z,12.98
2018-09-27T19:04:59.630Z,12.93
2018-09-27T19:07:28.115Z,12.89
2018-09-27T19:09:56.530Z,12.84
2018-09-27T19:12:25.013Z,12.77
2018-09-27T19:14:53.436Z,12.71
2018-09-27T19:17:21.845Z,12.62
2018-09-27T19:19:50.270Z,12.56
2018-09-27T19:22:18.768Z,12.55
2018-09-27T19:24:47.239Z,12.55
2018-09-27T19:27:15.725Z,12.52
2018-09-27T19:29:44.165Z,12.53
2018-09-27T19:32:12.606Z,12.51
2018-09-27T19:34:41.001Z,12.44
2018-09-27T19:37:09.569Z,12.43
2018-09-27T19:39:38.060Z,12.39
2018-09-27T19:42:06.576Z,12.35
2018-09-27T19:44:35.029Z,12.28
2018-09-27T19:47:03.481Z,12.27
2018-09-27T19:49:31.919Z,12.16
2018-09-27T19:52:00.352Z,12.12
2018-09-27T19:54:28.753Z,12.08
2018-09-27T19:56:57.152Z,12.09
2018-09-27T19:59:25.641Z,12.05
2018-09-27T20:01:54.067Z,12.02
2018-09-27T20:04:22.514Z,12.02
2018-09-27T20:06:51.260Z,11.98
2018-09-27T20:09:19.771Z,11.97
2018-09-27T20:11:48.326Z,11.95
2018-09-27T20:14:17.072Z,11.93
2018-09-27T20:16:45.715Z,11.87
2018-09-27T20:19:14.360Z,11.82
2018-09-27T20:21:42.793Z,11.77
2018-09-27T20:24:11.189Z,11.77
2018-09-27T20:26:39.629Z,11.70
2018-09-27T20:29:08.074Z,11.68
2018-09-27T20:31:36.524Z,11.65
2018-09-27T20:34:05.093Z,11.62
2018-09-27T20:36:33.564Z,11.60
2018-09-27T20:39:02.018Z,11.57
2018-09-27T20:41:30.470Z,11.54
2018-09-27T20:43:58.876Z,11.51
2018-09-27T20:46:27.345Z,11.46
2018-09-27T20:48:57.676Z,11.40
2018-09-27T20:51:26.137Z,11.35
2018-09-27T20:53:54.669Z,11.30
2018-09-27T20:56:23.033Z,11.35
2018-09-27T20:58:51.456Z,11.29
2018-09-27T21:01:19.881Z,11.27
2018-09-27T21:03:48.312Z,11.30
2018-09-27T21:06:16.720Z,11.30
2018-09-27T21:08:45.148Z,11.25
2018-09-27T21:11:13.576Z,11.21
2018-09-27T21:13:41.929Z,11.18
2018-09-27T21:16:10.354Z,11.12
2018-09-27T21:18:38.793Z,11.08
2018-09-27T21:21:07.192Z,11.07
2018-09-27T21:23:35.633Z,11.05
2018-09-27T21:26:04.061Z,10.97
2018-09-27T21:28:32.494Z,10.98
2018-09-27T21:31:00.947Z,11.03
2018-09-27T21:33:29.372Z,11.00
2018-09-27T21:35:57.850Z,11.00
2018-09-27T21:38:26.230Z,10.99
2018-09-27T21:40:54.683Z,10.97
2018-09-27T21:43:23.193Z,10.97
2018-09-27T21:45:51.542Z,10.99
2018-09-27T21:48:20.010Z,10.98
2018-09-27T21:50:48.447Z,10.98
2018-09-27T21:53:16.874Z,10.97
2018-09-27T21:55:45.268Z,10.89
2018-09-27T21:58:13.713Z,10.85
2018-09-27T22:00:42.097Z,10.78
2018-09-27T22:03:10.517Z,10.73
2018-09-27T22:05:38.925Z,10.65
2018-09-27T22:08:11.021Z,10.57
2018-09-27T22:10:40.618Z,10.47
2018-09-27T22:13:09.003Z,10.47
2018-09-27T22:15:37.432Z,10.43
2018-09-27T22:18:05.906Z,10.41
2018-09-27T22:20:34.321Z,10.48
2018-09-27T22:23:02.732Z,10.47
2018-09-27T22:25:31.229Z,10.47
2018-09-27T22:27:59.628Z,10.43
2018-09-27T22:30:28.012Z,10.41
2018-09-27T22:32:56.423Z,10.46
2018-09-27T22:35:24.994Z,10.40
2018-09-27T22:37:53.378Z,10.38
2018-09-27T22:40:21.786Z,10.40
2018-09-27T22:42:50.201Z,10.35
2018-09-27T22:45:18.662Z,10.40
2018-09-27T22:47:47.065Z,10.28
2018-09-27T22:50:15.472Z,10.26
2018-09-27T22:52:43.915Z,10.23
2018-09-27T22:55:12.359Z,10.22
2018-09-27T22:57:40.745Z,10.17
2018-09-27T23:00:09.219Z,10.12
2018-09-27T23:02:37.637Z,10.17
2018-09-27T23:05:06.042Z,10.21
2018-09-27T23:07:34.652Z,10.15
2018-09-27T23:10:03.061Z,10.10
2018-09-27T23:12:31.436Z,10.08
2018-09-27T23:14:59.827Z,10.02
2018-09-27T23:17:28.228Z,9.97
2018-09-27T23:19:56.609Z,10.06
2018-09-27T23:22:25.065Z,10.03
2018-09-27T23:24:53.691Z,9.99
2018-09-27T23:27:22.129Z,9.97
2018-09-27T23:29:50.527Z,9.94
2018-09-27T23:32:18.929Z,9.83
2018-09-27T23:34:47.305Z,9.81
2018-09-27T23:37:15.692Z,9.79
2018-09-27T23:39:44.106Z,9.75
2018-09-27T23:42:12.486Z,9.69
2018-09-27T23:44:40.957Z,9.71
2018-09-27T23:47:09.390Z,9.65
2018-09-27T23:49:37.787Z,9.59
2018-09-27T23:52:06.213Z,9.56
2018-09-27T23:54:34.648Z,9.54
2018-09-27T23:57:03.078Z,9.49
2018-09-27T23:59:31.460Z,9.45
